Time;durP1;ratioP1;P1;durP2;ratioP2;P2;SDS_P1;SDS_P2;PMS_P1;PMS_P2;Temp;Humidity;BMP_temperature;BMP_pressure;BME280_temperature;BME280_humidity;BME280_pressure;Samples;Min_cycle;Max_cycle;Signal;HPM_P1;HPM_P2
2023/08/31 00:01:33;;;;;;;13.77;9.07;;;;;;;15.52;100.00;99223.97;4239011;28;20234;-64
2023/08/31 00:03:59;;;;;;;15.47;8.80;;;;;;;15.49;100.00;99217.06;4237005;28;20245;-66
2023/08/31 00:06:26;;;;;;;16.00;8.53;;;;;;;15.51;100.00;99231.31;4241929;28;20330;-65
2023/08/31 00:08:53;;;;;;;15.07;9.30;;;;;;;15.49;100.00;99229.84;4238700;28;25501;-65
2023/08/31 00:11:19;;;;;;;16.53;8.90;;;;;;;15.55;100.00;99230.88;4236557;28;22313;-65
2023/08/31 00:13:46;;;;;;;14.20;9.20;;;;;;;15.46;100.00;99227.53;4244384;28;20429;-65
2023/08/31 00:16:13;;;;;;;15.23;9.17;;;;;;;15.48;100.00;99226.28;4233796;28;22874;-66
2023/08/31 00:18:40;;;;;;;14.07;8.73;;;;;;;15.44;100.00;99225.03;4235162;28;20638;-64
2023/08/31 00:21:08;;;;;;;15.20;7.87;;;;;;;15.45;100.00;99225.84;4239255;28;20227;-65
2023/08/31 00:23:37;;;;;;;15.47;8.20;;;;;;;15.41;100.00;99222.72;4230856;28;21407;-67
2023/08/31 00:26:03;;;;;;;15.63;7.80;;;;;;;15.39;100.00;99226.69;4233890;28;25720;-65
2023/08/31 00:28:30;;;;;;;13.17;8.10;;;;;;;15.30;100.00;99229.63;4241047;28;20535;-65
2023/08/31 00:30:57;;;;;;;12.03;8.20;;;;;;;15.34;100.00;99224.59;4236147;28;20394;-65
2023/08/31 00:33:26;;;;;;;17.87;8.67;;;;;;;15.31;100.00;99227.72;4238414;28;20296;-67
2023/08/31 00:35:56;;;;;;;15.50;9.13;;;;;;;15.28;100.00;99231.72;4235913;28;21054;-66
2023/08/31 00:38:22;;;;;;;15.83;8.10;;;;;;;15.24;100.00;99233.19;4244886;28;20239;-67
2023/08/31 00:40:50;;;;;;;12.70;8.50;;;;;;;15.23;100.00;99231.50;4232372;28;20605;-66
2023/08/31 00:43:17;;;;;;;13.50;8.87;;;;;;;15.24;100.00;99227.75;4232267;28;20467;-66
2023/08/31 00:45:45;;;;;;;15.60;8.27;;;;;;;15.22;100.00;99229.81;4237437;28;20230;-66
2023/08/31 00:48:15;;;;;;;17.30;8.63;;;;;;;15.24;100.00;99222.28;4234740;28;20275;-67
2023/08/31 00:50:41;;;;;;;13.60;8.87;;;;;;;15.23;100.00;99226.06;4236226;28;20235;-65
2023/08/31 00:53:08;;;;;;;15.73;8.27;;;;;;;15.26;100.00;99220.16;4239899;28;20230;-65
2023/08/31 00:55:35;;;;;;;12.93;8.20;;;;;;;15.24;100.00;99227.75;4235691;28;23440;-65
2023/08/31 00:58:02;;;;;;;13.70;8.33;;;;;;;15.27;100.00;99219.13;4236840;28;23071;-65
2023/08/31 01:00:52;;;;;;;16.27;9.00;;;;;;;15.27;100.00;99227.31;4235342;28;21210;-66
2023/08/31 01:03:52;;;;;;;18.17;9.03;;;;;;;15.28;100.00;99220.81;4243329;28;22150;-65
2023/08/31 01:06:33;;;;;;;14.03;8.30;;;;;;;15.30;100.00;99236.94;4238392;28;20235;-66
2023/08/31 01:09:28;;;;;;;13.03;8.83;;;;;;;15.30;100.00;99229.63;4247893;28;20231;-66
2023/08/31 01:12:06;;;;;;;13.53;8.00;;;;;;;15.39;100.00;99230.25;4247860;28;20230;-66
2023/08/31 01:14:42;;;;;;;13.93;7.73;;;;;;;15.20;100.00;99232.78;4233656;28;20230;-67
2023/08/31 01:17:12;;;;;;;12.27;8.27;;;;;;;15.15;100.00;99235.25;4237841;28;20260;-66
2023/08/31 01:19:51;;;;;;;11.70;8.20;;;;;;;15.14;100.00;99230.88;4241442;28;21383;-65
2023/08/31 01:22:26;;;;;;;15.27;8.13;;;;;;;15.14;100.00;99230.03;4242375;28;20243;-65
2023/08/31 01:24:53;;;;;;;13.10;8.30;;;;;;;15.13;100.00;99236.50;4239376;28;20234;-66
2023/08/31 01:27:20;;;;;;;14.60;7.77;;;;;;;15.16;100.00;99242.38;4235764;28;21129;-68
2023/08/31 01:29:47;;;;;;;12.00;8.53;;;;;;;15.20;100.00;99240.09;4247890;28;20498;-65
2023/08/31 01:32:14;;;;;;;13.80;7.73;;;;;;;15.23;100.00;99236.97;4230614;28;21268;-65
2023/08/31 01:34:40;;;;;;;10.77;7.37;;;;;;;15.16;100.00;99233.38;4243016;28;20230;-65
2023/08/31 01:37:23;;;;;;;14.77;7.73;;;;;;;15.05;100.00;99229.38;4237036;28;20242;-66
2023/08/31 01:39:54;;;;;;;14.37;7.57;;;;;;;14.98;100.00;99228.53;4239765;28;20240;-65
2023/08/31 01:42:21;;;;;;;11.73;8.00;;;;;;;14.93;100.00;99231.00;4240067;28;20230;-66
2023/08/31 01:44:48;;;;;;;13.70;8.07;;;;;;;14.94;100.00;99229.97;4244220;28;21159;-76
2023/08/31 01:47:16;;;;;;;14.70;8.07;;;;;;;14.93;100.00;99233.72;4237663;28;20604;-76
2023/08/31 01:49:43;;;;;;;11.67;7.97;;;;;;;14.95;100.00;99240.69;4228518;28;23103;-75
2023/08/31 01:52:10;;;;;;;14.53;8.13;;;;;;;14.89;100.00;99231.44;4245850;28;20269;-74
2023/08/31 01:54:39;;;;;;;13.53;8.50;;;;;;;14.96;100.00;99236.06;4246609;28;21046;-75
2023/08/31 01:57:06;;;;;;;13.77;8.20;;;;;;;15.00;100.00;99238.19;4213918;28;21896;-73
2023/08/31 01:59:34;;;;;;;11.90;8.23;;;;;;;15.08;100.00;99234.41;4243341;28;20246;-71
2023/08/31 02:02:01;;;;;;;12.67;7.77;;;;;;;15.07;100.00;99237.34;4241269;28;20231;-72
2023/08/31 02:04:27;;;;;;;12.57;8.40;;;;;;;14.99;100.00;99241.13;4241235;28;20242;-73
2023/08/31 02:06:54;;;;;;;12.73;8.47;;;;;;;14.89;100.00;99233.31;4235581;28;20332;-73
2023/08/31 02:09:20;;;;;;;13.70;8.77;;;;;;;14.89;100.00;99230.59;4249592;28;20707;-74
2023/08/31 02:11:47;;;;;;;14.97;9.27;;;;;;;14.94;100.00;99240.88;4239037;28;21811;-76
2023/08/31 02:14:14;;;;;;;13.90;8.10;;;;;;;14.94;100.00;99238.16;4235473;28;20253;-72
2023/08/31 02:16:40;;;;;;;13.90;8.27;;;;;;;15.07;100.00;99242.78;4240004;28;20310;-74
2023/08/31 02:19:07;;;;;;;11.67;8.50;;;;;;;15.12;100.00;99237.56;4233992;28;21366;-72
2023/08/31 02:21:33;;;;;;;10.87;8.40;;;;;;;15.02;100.00;99243.41;4230751;28;20264;-76
2023/08/31 02:24:00;;;;;;;13.27;8.80;;;;;;;15.07;100.00;99249.06;4240570;28;20233;-73
2023/08/31 02:26:26;;;;;;;14.83;9.30;;;;;;;15.14;100.00;99249.09;4256157;28;20253;-74
2023/08/31 02:28:53;;;;;;;13.37;8.80;;;;;;;15.20;100.00;99248.25;4235427;28;20356;-73
2023/08/31 02:31:19;;;;;;;13.40;8.33;;;;;;;15.12;100.00;99248.47;4237418;28;20554;-75
2023/08/31 02:33:46;;;;;;;12.57;8.63;;;;;;;15.04;100.00;99249.50;4245001;28;20344;-75
2023/08/31 02:36:13;;;;;;;16.23;8.43;;;;;;;15.16;100.00;99252.47;4235448;28;20254;-72
2023/08/31 02:38:40;;;;;;;15.27;8.37;;;;;;;15.16;100.00;99249.75;4233893;28;21442;-76
2023/08/31 02:41:06;;;;;;;11.53;8.33;;;;;;;15.14;100.00;99252.69;4239769;28;20242;-74
2023/08/31 02:43:33;;;;;;;11.97;8.47;;;;;;;15.20;100.00;99251.00;4240082;28;20680;-73
2023/08/31 02:46:01;;;;;;;13.47;8.47;;;;;;;15.11;100.00;99247.63;4234049;28;20237;-75
2023/08/31 02:48:30;;;;;;;14.20;8.07;;;;;;;15.19;100.00;99247.44;4234233;28;20231;-75
2023/08/31 02:51:00;;;;;;;14.10;8.17;;;;;;;15.05;100.00;99249.28;4237806;28;20349;-73
2023/08/31 02:53:27;;;;;;;10.60;7.93;;;;;;;15.07;100.00;99256.41;4234009;28;20234;-74
2023/08/31 02:55:54;;;;;;;12.60;8.17;;;;;;;14.93;100.00;99255.53;4237893;28;20231;-77
2023/08/31 02:58:20;;;;;;;12.67;8.20;;;;;;;14.94;100.00;99252.63;4234483;28;21115;-73
2023/08/31 03:00:48;;;;;;;12.70;8.63;;;;;;;14.92;100.00;99256.59;4236727;28;20231;-74
2023/08/31 03:03:18;;;;;;;14.97;9.80;;;;;;;14.81;100.00;99253.41;4203989;28;20237;-75
2023/08/31 03:05:44;;;;;;;12.80;9.43;;;;;;;14.71;100.00;99253.81;4227765;28;24371;-74
2023/08/31 03:08:11;;;;;;;14.87;9.73;;;;;;;14.81;100.00;99255.28;4227581;28;20235;-76
2023/08/31 03:10:38;;;;;;;13.43;9.40;;;;;;;14.83;100.00;99259.50;4253812;28;20230;-75
2023/08/31 03:13:05;;;;;;;15.57;8.70;;;;;;;14.71;100.00;99256.53;4222231;28;20268;-74
2023/08/31 03:15:33;;;;;;;12.00;8.53;;;;;;;14.77;100.00;99262.19;4225363;28;20234;-73
2023/08/31 03:18:00;;;;;;;12.80;8.97;;;;;;;14.67;100.00;99265.31;4229399;28;21396;-73
2023/08/31 03:20:27;;;;;;;14.37;8.30;;;;;;;14.71;100.00;99277.47;4220370;28;20240;-75
2023/08/31 03:22:53;;;;;;;15.73;8.93;;;;;;;14.67;100.00;99273.47;4246726;28;20239;-74
2023/08/31 03:25:20;;;;;;;18.53;9.03;;;;;;;14.63;100.00;99275.75;4244240;28;20238;-72
2023/08/31 03:27:47;;;;;;;12.30;8.90;;;;;;;14.63;100.00;99264.84;4236262;28;25136;-74
2023/08/31 03:30:13;;;;;;;14.00;9.43;;;;;;;14.60;100.00;99269.84;4245170;28;20432;-74
2023/08/31 03:32:40;;;;;;;13.30;9.00;;;;;;;14.63;100.00;99272.16;4237915;28;20522;-73
2023/08/31 03:35:07;;;;;;;12.67;9.07;;;;;;;14.62;100.00;99271.34;4240252;28;21791;-74
2023/08/31 03:37:34;;;;;;;12.23;9.27;;;;;;;14.56;100.00;99270.25;4239333;28;20230;-73
2023/08/31 03:40:00;;;;;;;13.07;8.47;;;;;;;14.57;100.00;99276.56;4245773;28;20243;-72
2023/08/31 03:42:27;;;;;;;12.07;8.47;;;;;;;14.57;100.00;99271.94;4224883;28;22883;-73
2023/08/31 03:44:53;;;;;;;14.33;7.77;;;;;;;14.61;100.00;99277.00;4239913;28;20301;-73
2023/08/31 03:47:20;;;;;;;11.00;7.40;;;;;;;14.54;100.00;99276.94;4250016;28;21113;-74
2023/08/31 03:49:46;;;;;;;9.80;7.43;;;;;;;14.55;100.00;99276.75;4237700;28;20289;-74
2023/08/31 03:52:13;;;;;;;11.97;7.33;;;;;;;14.56;100.00;99283.88;4238730;28;20234;-71
2023/08/31 03:54:39;;;;;;;11.60;7.30;;;;;;;14.56;100.00;99292.03;4223669;28;20325;-75
2023/08/31 03:57:06;;;;;;;14.53;7.13;;;;;;;14.56;100.00;99283.88;4241832;28;21970;-73
2023/08/31 03:59:33;;;;;;;10.43;7.27;;;;;;;14.62;100.00;99284.09;4241435;28;20231;-74
2023/08/31 04:02:00;;;;;;;13.40;7.37;;;;;;;14.65;100.00;99291.88;4240246;28;20233;-72
2023/08/31 04:04:27;;;;;;;11.43;7.80;;;;;;;14.66;100.00;99286.25;4244638;28;20509;-73
2023/08/31 04:06:53;;;;;;;11.67;7.10;;;;;;;14.63;100.00;99285.78;4241697;28;23492;-71
2023/08/31 04:09:20;;;;;;;12.63;7.00;;;;;;;14.64;100.00;99284.75;4233155;28;21856;-75
2023/08/31 04:11:46;;;;;;;9.67;7.37;;;;;;;14.65;100.00;99291.88;4236259;28;21079;-74
2023/08/31 04:14:13;;;;;;;11.43;7.23;;;;;;;14.66;100.00;99299.03;4241427;28;20238;-73
2023/08/31 04:16:39;;;;;;;10.20;7.20;;;;;;;14.70;100.00;99286.69;4241208;28;20266;-73
2023/08/31 04:19:06;;;;;;;9.00;6.50;;;;;;;14.60;100.00;99289.75;4241676;28;20238;-73
2023/08/31 04:21:32;;;;;;;8.57;6.80;;;;;;;14.68;100.00;99291.50;4260688;28;20824;-72
2023/08/31 04:24:00;;;;;;;9.60;5.93;;;;;;;14.73;100.00;99283.56;4267868;28;20238;-74
2023/08/31 04:26:27;;;;;;;8.87;6.77;;;;;;;14.74;100.00;99285.25;4284666;28;21833;-75
2023/08/31 04:28:54;;;;;;;9.97;6.73;;;;;;;14.70;100.00;99292.97;4264087;28;21188;-73
2023/08/31 04:31:22;;;;;;;10.17;6.40;;;;;;;14.72;100.00;99292.78;4275368;28;21761;-74
2023/08/31 04:33:53;;;;;;;9.93;5.53;;;;;;;14.78;100.00;99297.41;4281493;28;20255;-73
2023/08/31 04:36:21;;;;;;;13.07;6.30;;;;;;;14.85;100.00;99297.44;4285682;28;20404;-71
2023/08/31 04:38:51;;;;;;;10.87;6.17;;;;;;;14.92;100.00;99294.75;4282240;28;20260;-74
2023/08/31 04:41:18;;;;;;;9.47;5.20;;;;;;;14.83;100.00;99284.03;4266561;28;20309;-74
2023/08/31 04:43:47;;;;;;;9.00;5.40;;;;;;;14.95;100.00;99300.63;4240702;28;20551;-75
2023/08/31 04:46:14;;;;;;;8.60;5.00;;;;;;;14.87;100.00;99290.75;4263246;28;20822;-76
2023/08/31 04:48:41;;;;;;;9.83;4.80;;;;;;;14.96;100.00;99298.75;4248805;28;20363;-74
2023/08/31 04:51:32;;;;;;;8.50;4.90;;;;;;;15.08;100.00;99304.44;4273469;28;20556;-73
2023/08/31 04:53:59;;;;;;;9.93;4.77;;;;;;;15.10;100.00;99303.19;4250041;28;25661;-73
2023/08/31 04:56:31;;;;;;;8.73;5.50;;;;;;;15.14;100.00;99306.34;4246939;28;20325;-77
2023/08/31 04:58:59;;;;;;;7.27;4.33;;;;;;;15.15;98.82;99313.47;4250955;28;20278;-73
2023/08/31 05:01:29;;;;;;;6.97;4.50;;;;;;;15.09;99.84;99319.75;4252349;28;20241;-76
2023/08/31 05:03:56;;;;;;;6.80;4.40;;;;;;;15.23;98.59;99324.19;4257687;28;20231;-73
2023/08/31 05:06:22;;;;;;;6.63;4.30;;;;;;;15.25;98.28;99329.44;4230880;28;21113;-74
2023/08/31 05:08:49;;;;;;;7.67;3.87;;;;;;;15.16;97.96;99331.53;4235431;28;20985;-74
2023/08/31 05:11:16;;;;;;;5.53;3.33;;;;;;;15.11;96.91;99329.41;4250086;28;20231;-73
2023/08/31 05:13:42;;;;;;;3.80;2.80;;;;;;;15.27;96.02;99333.63;4240367;28;20582;-76
2023/08/31 05:16:09;;;;;;;4.60;3.00;;;;;;;15.24;95.91;99339.50;4229260;28;21654;-74
2023/08/31 05:18:36;;;;;;;3.17;2.30;;;;;;;15.17;95.66;99344.94;4258477;28;20666;-74
2023/08/31 05:21:04;;;;;;;3.97;2.10;;;;;;;15.42;94.42;99346.25;4235398;28;20523;-76
2023/08/31 05:23:31;;;;;;;4.00;2.10;;;;;;;15.45;92.91;99338.50;4219306;28;20239;-71
2023/08/31 05:25:58;;;;;;;4.07;1.97;;;;;;;15.42;92.51;99346.25;4221148;28;20235;-68
2023/08/31 05:28:24;;;;;;;3.33;1.70;;;;;;;15.45;91.42;99348.59;4236754;28;23061;-74
2023/08/31 05:30:52;;;;;;;4.60;1.60;;;;;;;15.41;92.50;99350.06;4246144;28;20439;-73
2023/08/31 05:33:19;;;;;;;4.50;1.60;;;;;;;15.50;92.24;99352.38;4242995;28;20375;-72
2023/08/31 05:35:46;;;;;;;3.70;1.60;;;;;;;15.49;91.81;99355.28;4225603;28;20235;-73
2023/08/31 05:38:12;;;;;;;3.87;1.97;;;;;;;15.55;90.42;99356.34;4235717;28;20234;-72
2023/08/31 05:40:39;;;;;;;5.07;1.73;;;;;;;15.43;91.21;99362.44;4222901;28;20669;-75
2023/08/31 05:43:06;;;;;;;3.63;1.90;;;;;;;15.52;91.23;99358.44;4235952;28;22870;-75
2023/08/31 05:45:33;;;;;;;3.77;1.50;;;;;;;15.45;89.86;99376.69;4218342;28;20650;-74
2023/08/31 05:48:00;;;;;;;4.87;1.40;;;;;;;15.60;88.58;99375.66;4230685;28;20277;-79
2023/08/31 05:50:27;;;;;;;4.67;1.53;;;;;;;15.58;88.07;99375.06;4246346;28;20653;-75
2023/08/31 05:52:55;;;;;;;2.17;1.37;;;;;;;15.73;87.95;99380.31;4247139;28;22106;-73
2023/08/31 05:55:22;;;;;;;4.57;1.73;;;;;;;15.63;87.84;99376.13;4242249;28;20537;-73
2023/08/31 05:57:49;;;;;;;2.17;1.40;;;;;;;15.64;87.82;99376.94;4248932;28;21351;-73
2023/08/31 06:00:16;;;;;;;4.43;1.50;;;;;;;15.71;86.79;99380.53;4240678;28;20369;-74
2023/08/31 06:02:46;;;;;;;6.43;1.80;;;;;;;16.07;85.84;99387.53;4241171;28;20352;-74
2023/08/31 06:05:13;;;;;;;7.93;1.40;;;;;;;15.95;85.16;99381.00;4248449;28;21532;-73
2023/08/31 06:07:39;;;;;;;3.37;1.53;;;;;;;15.84;84.96;99386.03;4256831;28;20232;-74
2023/08/31 06:10:06;;;;;;;3.00;1.40;;;;;;;15.81;85.32;99394.63;4254022;28;20490;-75
2023/08/31 06:12:33;;;;;;;3.47;1.27;;;;;;;15.87;84.38;99398.41;4259723;28;20777;-78
2023/08/31 06:15:00;;;;;;;3.20;1.40;;;;;;;15.86;84.09;99396.75;4248875;28;20231;-75
2023/08/31 06:17:27;;;;;;;4.90;1.87;;;;;;;15.93;84.27;99394.03;4294666;28;21706;-74
2023/08/31 06:19:53;;;;;;;3.17;1.37;;;;;;;15.83;84.21;99383.53;4251937;28;20286;-78
2023/08/31 06:22:22;;;;;;;4.73;1.53;;;;;;;15.73;84.57;99388.50;4285141;28;22057;-75
2023/08/31 06:24:49;;;;;;;4.97;1.93;;;;;;;15.68;84.95;99394.56;4439232;28;20491;-77
2023/08/31 06:27:28;;;;;;;;;;;;;;;;;;;;;
2023/08/31 06:30:07;;;;;;;6.63;1.90;;;;;;;15.93;82.77;99394.03;4329552;28;20363;-75
2023/08/31 06:32:34;;;;;;;5.57;1.30;;;;;;;16.03;82.98;99401.78;4285611;28;21160;-67
2023/08/31 06:35:01;;;;;;;2.33;1.30;;;;;;;16.02;82.42;99403.69;4256921;28;20236;-70
2023/08/31 06:37:27;;;;;;;2.50;1.60;;;;;;;16.14;82.82;99399.28;4251155;28;21046;-66
2023/08/31 06:39:54;;;;;;;4.80;1.57;;;;;;;16.21;82.67;99404.75;4293634;28;20753;-65
2023/08/31 06:42:21;;;;;;;5.43;1.70;;;;;;;16.20;81.50;99405.81;4267202;28;20501;-66
2023/08/31 06:44:48;;;;;;;6.90;1.63;;;;;;;16.22;81.87;99409.19;4259604;28;21730;-66
2023/08/31 06:47:17;;;;;;;4.60;1.70;;;;;;;16.06;81.46;99385.00;4230282;28;20341;-65
2023/08/31 06:49:43;;;;;;;5.43;1.70;;;;;;;16.23;80.20;99410.00;4245654;28;23537;-69
2023/08/31 06:52:10;;;;;;;4.13;1.73;;;;;;;16.32;81.53;99406.00;4224292;28;20238;-67
2023/08/31 06:54:56;;;;;;;4.23;1.60;;;;;;;16.82;78.75;99407.41;4266044;28;22495;-64
2023/08/31 06:57:24;;;;;;;5.13;1.83;;;;;;;16.93;79.68;99421.28;4280888;28;21964;-67
2023/08/31 06:59:52;;;;;;;6.87;2.33;;;;;;;16.84;78.98;99417.09;4244008;28;20248;-67
2023/08/31 07:02:19;;;;;;;6.60;1.90;;;;;;;16.59;79.48;99414.19;4276352;28;20288;-68
2023/08/31 07:04:46;;;;;;;4.93;2.10;;;;;;;16.73;81.03;99415.84;4238526;28;20242;-67
2023/08/31 07:07:13;;;;;;;3.27;2.40;;;;;;;16.84;80.68;99417.09;4244943;28;20235;-71
2023/08/31 07:09:43;;;;;;;4.57;2.10;;;;;;;16.97;80.38;99415.41;4274126;28;20302;-64
2023/08/31 07:12:10;;;;;;;3.83;2.30;;;;;;;17.46;78.85;99405.75;4247216;28;20239;-69
2023/08/31 07:14:36;;;;;;;3.40;2.33;;;;;;;18.22;75.40;99416.88;4270416;28;20241;-65
2023/08/31 07:17:03;;;;;;;4.63;2.03;;;;;;;17.76;75.37;99415.28;4269714;28;20381;-71
2023/08/31 07:19:30;;;;;;;3.40;2.17;;;;;;;18.33;73.30;99427.09;4234337;28;20290;-73
2023/08/31 07:21:57;;;;;;;5.10;2.30;;;;;;;18.58;72.50;99420.78;4283100;28;21250;-69
2023/08/31 07:24:24;;;;;;;3.43;1.70;;;;;;;18.35;73.09;99429.66;4252464;28;20738;-67
2023/08/31 07:26:52;;;;;;;2.87;1.90;;;;;;;18.26;74.69;99425.50;4242026;28;25812;-69
2023/08/31 07:29:19;;;;;;;3.63;2.00;;;;;;;17.70;75.07;99422.47;4238712;28;20364;-72
2023/08/31 07:31:46;;;;;;;5.30;2.10;;;;;;;18.07;73.25;99424.59;4242216;28;20534;-71
2023/08/31 07:34:13;;;;;;;3.03;1.97;;;;;;;18.57;71.34;99429.25;4222173;28;21302;-72
2023/08/31 07:36:39;;;;;;;3.60;1.50;;;;;;;19.61;67.80;99429.34;4253710;28;20232;-72
2023/08/31 07:39:07;;;;;;;3.93;1.70;;;;;;;19.89;65.78;99427.97;4258960;28;20232;-72
2023/08/31 07:41:33;;;;;;;3.70;1.80;;;;;;;19.85;65.75;99440.47;4261048;28;20852;-72
2023/08/31 07:44:02;;;;;;;4.87;1.93;;;;;;;20.00;64.53;99426.31;4245572;28;23919;-73
2023/08/31 07:46:31;;;;;;;5.93;1.60;;;;;;;20.89;60.22;99436.47;4257939;28;20316;-71
2023/08/31 07:48:57;;;;;;;4.07;1.50;;;;;;;21.37;58.67;99444.66;4233348;28;20623;-71
2023/08/31 07:51:25;;;;;;;4.53;1.50;;;;;;;21.39;57.71;99445.25;4263798;28;20240;-72
2023/08/31 07:53:53;;;;;;;4.47;1.60;;;;;;;20.69;59.43;99438.72;4288371;28;21120;-70
2023/08/31 07:56:19;;;;;;;2.63;1.30;;;;;;;20.66;60.59;99444.69;4262378;28;20584;-69
2023/08/31 07:58:46;;;;;;;3.17;1.03;;;;;;;21.46;57.42;99445.09;4307509;28;20234;-71
2023/08/31 08:01:13;;;;;;;3.00;1.00;;;;;;;21.53;58.04;99449.41;4333671;28;20243;-47
2023/08/31 08:03:40;;;;;;;6.97;1.30;;;;;;;21.28;58.02;99454.38;4260584;28;20299;-46
2023/08/31 08:06:06;;;;;;;3.90;1.33;;;;;;;20.85;60.19;99454.53;4245571;28;21080;-74
2023/08/31 08:08:33;;;;;;;4.17;1.57;;;;;;;21.54;57.11;99455.75;4251854;28;20343;-72
2023/08/31 08:11:00;;;;;;;2.07;1.03;;;;;;;21.15;58.44;99467.31;4244728;28;20875;-73
2023/08/31 08:13:27;;;;;;;2.57;1.20;;;;;;;21.04;58.96;99455.25;4253526;28;20340;-71
2023/08/31 08:15:53;;;;;;;2.57;1.13;;;;;;;20.78;57.65;99455.72;4284294;28;20350;-75
2023/08/31 08:18:22;;;;;;;1.83;1.10;;;;;;;20.63;58.99;99459.75;4281122;28;20238;-78
2023/08/31 08:20:53;;;;;;;3.27;1.23;;;;;;;20.69;57.89;99457.97;4289002;28;20257;-75
2023/08/31 08:23:21;;;;;;;2.10;0.90;;;;;;;20.81;57.07;99463.50;4261828;28;20441;-75
2023/08/31 08:25:48;;;;;;;4.97;1.10;;;;;;;20.10;60.29;99455.97;4249266;28;20568;-76
2023/08/31 08:28:15;;;;;;;2.93;1.40;;;;;;;19.66;60.95;99469.00;4273801;28;20235;-74
2023/08/31 08:30:41;;;;;;;3.03;0.90;;;;;;;19.70;60.58;99462.84;4286103;28;20235;-78
2023/08/31 08:33:09;;;;;;;2.97;1.00;;;;;;;20.04;59.90;99465.97;4275940;28;20473;-77
2023/08/31 08:35:39;;;;;;;2.83;1.10;;;;;;;20.66;59.42;99459.28;4269785;28;20240;-73
2023/08/31 08:38:06;;;;;;;4.10;1.57;;;;;;;20.64;58.95;99461.44;4268045;28;20268;-76
2023/08/31 08:40:34;;;;;;;5.33;1.60;;;;;;;20.08;61.19;99466.34;4255482;28;20303;-74
2023/08/31 08:43:02;;;;;;;2.90;1.50;;;;;;;20.14;59.71;99473.63;4251642;28;20238;-72
2023/08/31 08:45:36;;;;;;;3.87;1.60;;;;;;;19.70;62.02;99486.69;4270372;28;21572;-71
2023/08/31 08:48:06;;;;;;;3.73;1.60;;;;;;;19.50;62.25;99484.19;4244385;28;20239;-73
2023/08/31 08:50:34;;;;;;;2.50;1.60;;;;;;;19.60;61.93;99485.31;4236171;28;20296;-72
2023/08/31 08:53:04;;;;;;;3.97;1.60;;;;;;;19.99;61.30;99478.72;4263396;28;20230;-73
2023/08/31 08:55:32;;;;;;;3.20;1.70;;;;;;;19.89;61.61;99479.28;4246375;28;20383;-73
2023/08/31 08:58:03;;;;;;;2.67;1.80;;;;;;;20.31;61.08;99483.97;4248422;28;20233;-71
2023/08/31 09:00:30;;;;;;;2.77;1.70;;;;;;;20.77;60.03;99492.56;4262178;28;22396;-73
2023/08/31 09:02:58;;;;;;;4.13;1.80;;;;;;;21.11;58.49;99484.56;4230104;28;20256;-72
2023/08/31 09:05:26;;;;;;;2.70;1.73;;;;;;;20.75;60.15;99481.78;4269396;28;20240;-69
2023/08/31 09:08:05;;;;;;;4.13;1.70;;;;;;;20.69;59.79;99485.47;4268781;28;20239;-71
2023/08/31 09:10:40;;;;;;;3.80;1.93;;;;;;;19.95;62.75;99478.34;4253624;28;22097;-70
2023/08/31 09:13:08;;;;;;;4.53;1.80;;;;;;;19.89;63.02;99487.53;4248558;28;21098;-71
2023/08/31 09:15:44;;;;;;;4.03;1.60;;;;;;;19.71;62.46;99488.38;4250536;28;20238;-71
2023/08/31 09:18:26;;;;;;;5.23;1.97;;;;;;;20.10;62.30;99481.50;4258598;28;20234;-73
2023/08/31 09:20:54;;;;;;;5.27;1.93;;;;;;;20.56;61.13;99481.88;4232794;28;21580;-69
2023/08/31 09:23:21;;;;;;;4.00;1.80;;;;;;;20.35;61.03;99496.19;4275289;28;20228;-73
2023/08/31 09:25:55;;;;;;;4.00;2.03;;;;;;;20.40;60.17;99488.06;4248417;28;21644;-71
2023/08/31 09:28:26;;;;;;;3.33;1.73;;;;;;;20.56;60.60;99497.53;4255960;28;22467;-76
2023/08/31 09:31:08;;;;;;;5.17;2.30;;;;;;;21.23;57.25;99490.88;4265489;28;20236;-71
2023/08/31 09:33:36;;;;;;;4.20;1.40;;;;;;;21.16;57.73;99502.03;4250545;28;21925;-73
2023/08/31 09:36:07;;;;;;;4.93;1.53;;;;;;;21.44;56.45;99491.34;4232115;28;20232;-73
2023/08/31 09:38:42;;;;;;;2.67;1.60;;;;;;;20.76;59.37;99493.66;4241027;28;20233;-69
2023/08/31 09:41:08;;;;;;;3.90;1.87;;;;;;;21.03;58.74;99511.34;4252196;28;25530;-69
2023/08/31 09:43:35;;;;;;;4.60;1.60;;;;;;;20.77;59.82;99509.91;4267321;28;20798;-67
2023/08/31 09:46:03;;;;;;;5.93;1.50;;;;;;;20.61;59.25;99503.16;4245713;28;20228;-69
2023/08/31 09:48:31;;;;;;;5.70;1.83;;;;;;;20.51;60.03;99508.41;4252367;28;22017;-69
2023/08/31 09:50:57;;;;;;;3.00;1.40;;;;;;;21.21;57.34;99506.81;4262218;28;23263;-69
2023/08/31 09:53:24;;;;;;;2.50;1.30;;;;;;;20.45;58.34;99506.59;4238038;28;23121;-68
2023/08/31 09:55:56;;;;;;;3.47;1.30;;;;;;;20.27;58.46;99519.31;4247694;28;20236;-69
2023/08/31 09:58:23;;;;;;;3.37;1.50;;;;;;;20.21;58.74;99518.34;4248796;28;20273;-69
2023/08/31 10:00:52;;;;;;;3.13;1.37;;;;;;;20.37;59.67;99521.50;4257375;28;21978;-72
2023/08/31 10:03:20;;;;;;;4.63;1.40;;;;;;;20.32;59.31;99526.88;4240833;28;25372;-70
2023/08/31 10:05:49;;;;;;;4.33;1.50;;;;;;;20.04;59.81;99534.66;4256456;28;21675;-70
2023/08/31 10:08:17;;;;;;;4.70;1.70;;;;;;;20.15;60.11;99522.03;4259708;28;20271;-68
2023/08/31 10:10:44;;;;;;;3.13;1.53;;;;;;;;;;4253997;28;21211;-69
2023/08/31 10:13:11;;;;;;;2.50;1.63;;;;;;;20.22;59.79;99532.94;4264563;28;20232;-68
2023/08/31 10:15:39;;;;;;;5.93;1.60;;;;;;;20.46;60.75;99527.53;4254746;28;22866;-69
2023/08/31 10:18:07;;;;;;;3.97;1.70;;;;;;;20.62;59.21;99520.50;4232171;28;20358;-68
2023/08/31 10:20:34;;;;;;;3.83;1.50;;;;;;;20.82;59.41;99518.28;4251065;28;20370;-69
2023/08/31 10:23:05;;;;;;;6.83;1.90;;;;;;;20.94;58.89;99523.78;4239375;28;22303;-70
2023/08/31 10:25:50;;;;;;;2.43;1.63;;;;;;;20.94;57.39;99523.78;4259200;28;21748;-69
2023/08/31 10:28:18;;;;;;;3.83;1.53;;;;;;;21.33;56.71;99523.31;4227258;28;20868;-70
2023/08/31 10:31:04;;;;;;;2.70;1.70;;;;;;;20.77;57.70;99526.41;4242447;28;20235;-69
2023/08/31 10:33:33;;;;;;;2.87;1.63;;;;;;;20.52;58.07;99521.06;4245093;28;20940;-69
2023/08/31 10:36:00;;;;;;;4.67;1.70;;;;;;;20.49;58.26;99527.88;4232094;28;20227;-69
2023/08/31 10:38:31;;;;;;;2.77;1.57;;;;;;;20.56;58.52;99520.38;4265984;28;20713;-69
2023/08/31 10:41:06;;;;;;;4.27;1.80;;;;;;;20.52;59.05;99524.66;4237190;28;20236;-69
2023/08/31 10:43:57;;;;;;;9.37;2.00;;;;;;;20.48;59.10;99526.22;4252347;28;22930;-70
2023/08/31 10:46:32;;;;;;;3.63;2.03;;;;;;;20.73;58.59;99525.22;4259645;28;22291;-74
2023/08/31 10:49:03;;;;;;;4.07;2.07;;;;;;;20.40;59.69;99523.78;4240733;28;20223;-72
2023/08/31 10:51:32;;;;;;;5.37;2.27;;;;;;;20.49;60.89;99522.38;4256522;28;20312;-71
2023/08/31 10:54:10;;;;;;;4.83;2.20;;;;;;;20.61;59.37;99522.41;4270328;28;20447;-72
2023/08/31 10:57:08;;;;;;;3.97;1.93;;;;;;;20.65;58.92;99533.78;4263449;28;20244;-73
2023/08/31 10:59:51;;;;;;;3.00;2.10;;;;;;;20.71;58.06;99525.41;4265825;28;20275;-69
2023/08/31 11:02:34;;;;;;;3.77;1.90;;;;;;;20.84;57.87;99527.13;4256478;28;20557;-72
2023/08/31 11:05:10;;;;;;;4.90;2.20;;;;;;;20.85;56.76;99519.69;4297373;28;20226;-68
2023/08/31 11:07:40;;;;;;;4.33;2.10;;;;;;;21.10;57.56;99522.25;4242622;28;20645;-71
2023/08/31 11:10:12;;;;;;;4.03;2.13;;;;;;;21.19;57.37;99522.72;4293587;28;20944;-68
2023/08/31 11:12:43;;;;;;;5.23;2.00;;;;;;;21.78;55.99;99519.91;4260965;28;20235;-69
2023/08/31 11:15:14;;;;;;;3.40;2.20;;;;;;;21.45;56.40;99526.06;4238275;28;20773;-70
2023/08/31 11:17:42;;;;;;;6.17;2.00;;;;;;;21.45;56.68;99529.63;4243442;28;20379;-67
2023/08/31 11:20:12;;;;;;;5.77;2.23;;;;;;;21.49;56.06;99521.72;4241736;28;20285;-67
2023/08/31 11:22:41;;;;;;;4.70;2.50;;;;;;;21.59;55.15;99529.41;4228272;28;20759;-69
2023/08/31 11:25:09;;;;;;;6.37;2.27;;;;;;;21.84;54.12;99531.84;4245436;28;21979;-68
2023/08/31 11:27:37;;;;;;;5.30;2.10;;;;;;;22.14;52.65;99528.00;4296732;28;25667;-71
2023/08/31 11:30:11;;;;;;;2.63;2.43;;;;;;;21.82;54.09;99534.84;4263518;28;21819;-70
2023/08/31 11:32:50;;;;;;;5.17;2.40;;;;;;;21.73;54.88;99530.78;4247179;28;20258;-71
2023/08/31 11:35:19;;;;;;;3.60;2.30;;;;;;;21.84;54.27;99538.22;4249729;28;20234;-70
2023/08/31 11:37:50;;;;;;;4.43;2.10;;;;;;;21.95;53.78;99533.75;4255311;28;20752;-71